Reportages photos

Inscriptions en ligne

Connexion

10Km

10 KM SAINT MARTIN du 04/10/15 (Réelle 10,5)
Rang Dossard Nom Prénom Temps Cat Rang Cat Ecart Ecart Cat Club Vitesse Km/h Temps au Km
1 297 PICHONNIER GUILLAUME 00:36:54 SEM 1 00:00:00 00:00:00 NON LICENCIE 17,073 03:31
2 311 LEROY RAPHAEL 00:37:22 SEM 2 00:00:28 00:00:28 ADNGPS 16,860 03:34
3 260 BARAK ALI 00:37:31 CAM 1 00:00:37 00:00:00 EMA 62 16,793 03:34
4 123 MORIN AYMERIC 00:37:50 SEM 3 00:00:56 00:00:56 WIMEREUX RUNNING CLUB 16,652 03:36
5 50 BOURDON GILBERT 00:38:53 SEM 4 00:01:59 00:01:59 ATHLETISME CLUB OUTREAU 16,202 03:42
6 321 BALAIRE HILAIRE 00:39:31 SEM 5 00:02:37 00:02:37 NON LICENCIE 15,943 03:46
7 158 LOEUILLIEUX STEPHANE 00:39:33 V1M 1 00:02:39 00:00:00 TEAM RUN OPALE 15,929 03:46
8 240 DUCLOY KEVIN 00:39:56 SEM 6 00:03:02 00:03:02 SAINT MARTIN ATHLETISME 15,776 03:48
9 241 PRUVOT LUDOVIC 00:40:27 V1M 2 00:03:33 00:00:54 NON LICENCIE 15,575 03:51
10 270 APHERVE AURELIEN 00:40:51 CAM 2 00:03:57 00:03:20 EMA 62 15,422 03:53
11 226 HUMEZ ALEXIS 00:41:00 CAM 3 00:04:06 00:03:29 NON LICENCIE 15,366 03:54
12 42 CARBONNIER MICHEL 00:41:10 V1M 3 00:04:16 00:01:37 PATRIOTES CROSS DE GUINES 15,304 03:55
13 107 LEVEL FABIEN 00:41:16 SEM 7 00:04:22 00:04:22 ATHLETIQUE CLUB CAPELLOIS 15,267 03:56
14 256 SAUNEUF PHILIPPE 00:41:23 V1M 4 00:04:29 00:01:50 SAINT MARTIN ATHLETISME 15,224 03:56
15 275 BRUNEL JEAN-FRANCOIS 00:41:24 V1M 5 00:04:30 00:01:51 SAINT MARTIN ATHLETISME 15,217 03:57
16 78 DOCQUOIS FREDERIC 00:41:43 V1M 6 00:04:49 00:02:10 LE DRAPEAU 15,102 03:58
17 41 DUCROCQ ARNAUD 00:41:46 V1M 7 00:04:52 00:02:13 PATRIOTES CROSS DE GUINES 15,084 03:59
18 223 LEBLOND STEPHANE 00:41:50 SEM 8 00:04:56 00:04:56 NON LICENCIE 15,060 03:59
19 132 RIVET JEAN-FRANCOIS 00:42:00 V1M 8 00:05:06 00:02:27 WIMEREUX RUNNING CLUB 15,000 04:00
20 249 NOEL CAMILLE 00:42:06 SEM 9 00:05:12 00:05:12 ATHLETISME CLUB OUTREAU 14,964 04:01
21 58 LEGRAND OLIVIER 00:42:17 V1M 9 00:05:23 00:02:44 ATHLETISME CLUB OUTREAU 14,899 04:02
22 32 HODIQUE HERVE 00:42:28 V1M 10 00:05:34 00:02:55 TEAM TRAIL 62 14,835 04:03
23 39 LIMOUSIN STEPHANE 00:42:31 V1M 11 00:05:37 00:02:58 PATRIOTES CROSS DE GUINES 14,818 04:03
24 323 DUFRESNE FABIEN 00:42:39 SEM 10 00:05:45 00:05:45 NON LICENCIE 14,771 04:04
25 103 LEBLOND ARNAUD 00:42:43 V1M 12 00:05:49 00:03:10 ATHLETIQUE CLUB CAPELLOIS 14,748 04:04
26 149 DUCROCQ LINDA 00:42:48 SEF 1 00:05:54 00:00:00 NON LICENCIE 14,720 04:05
27 108 LEVEL LINA 00:43:05 SEF 2 00:06:11 00:00:17 ATHLETIQUE CLUB CAPELLOIS 14,623 04:06
28 315 BATTESTI DAVID 00:43:06 SEM 11 00:06:12 00:06:12 TEAM RAKLETTE 14,617 04:06
29 48 BADON EMMANUEL 00:43:09 SEM 12 00:06:15 00:06:15 ATHLETISME CLUB OUTREAU 14,600 04:07
30 38 MAZURIER ALAIN 00:43:10 V1M 13 00:06:16 00:03:37 PATRIOTES CROSS DE GUINES 14,595 04:07
31 106 LEFEBVRE MAXENCE 00:43:19 CAM 4 00:06:25 00:05:48 ATHLETIQUE CLUB CAPELLOIS 14,544 04:08
32 34 VAILLANT JEROME 00:43:32 SEM 13 00:06:38 00:06:38 TEAM TRAIL 62 14,472 04:09
33 30 DELLIAUX EMMANUEL 00:43:42 SEM 14 00:06:48 00:06:48 TEAM TRAIL 62 14,416 04:10
34 303 TAVERNE DAMIEN 00:43:44 SEM 15 00:06:50 00:06:50 TOUQUET OPALE ATHLETISME 14,405 04:10
35 170 GUILBERT FABIEN 00:43:54 SEM 16 00:07:00 00:07:00 NON LICENCIE 14,351 04:11
36 29 DACQUIN FABIEN 00:44:02 V1M 14 00:07:08 00:04:29 TEAM TRAIL 62 14,307 04:12
37 57 LEHON LUDOVIC 00:44:14 SEM 17 00:07:20 00:07:20 ATHLETISME CLUB OUTREAU 14,243 04:13
38 51 BOURGAIN SEBASTIEN 00:44:17 V1M 15 00:07:23 00:04:44 ATHLETISME CLUB OUTREAU 14,227 04:13
39 248 HERMAN ANTOINE 00:44:20 SEM 18 00:07:26 00:07:26 FOULEES ATHLETIQUE WASQUELIENNES 14,211 04:13
40 244 BUQUET JEROME 00:44:24 V1M 16 00:07:30 00:04:51 NON LICENCIE 14,189 04:14
41 37 PIERRU REYNALD 00:44:24 V1M 17 00:07:30 00:04:51 PATRIOTES CROSS DE GUINES 14,189 04:14
42 273 ROCHE BERNARD 00:44:28 V2M 1 00:07:34 00:00:00 NON LICENCIE 14,168 04:14
43 203 SCHUPPE CLOTAIRE 00:44:39 V2M 2 00:07:45 00:00:11 A.S. MARCK 14,110 04:15
44 66 PAQUES CHRISTOPHE 00:44:42 V1M 18 00:07:48 00:05:09 ATHLETISME CLUB OUTREAU 14,094 04:15
45 265 NEMPONT FREDERIC 00:44:45 V1M 19 00:07:51 00:05:12 NON LICENCIE 14,078 04:16
46 282 LEMAITRE LAURENT 00:44:47 V1M 20 00:07:53 00:05:14 NON LICENCIE 14,068 04:16
47 267 GOURDIN ERIC 00:45:03 V1M 21 00:08:09 00:05:30 ESCAP'AVENTURE 13,984 04:17
48 328 HALLENNE VALERY 00:45:05 V1M 22 00:08:11 00:05:32 TOUQUET OPALE ATHLETISME 13,974 04:18
49 8 LOORIUS LOIC 00:45:10 SEM 19 00:08:16 00:08:16 CPAM 13,948 04:18
50 286 BOUVOT CYRILLE 00:45:20 SEM 20 00:08:26 00:08:26 NON LICENCIE 13,897 04:19
51 97 BRIEZ ARNAUD 00:45:33 V1M 23 00:08:39 00:06:00 ATHLETIQUE CLUB CAPELLOIS 13,831 04:20
52 202 SERRET LUDOVIC 00:45:35 SEM 21 00:08:41 00:08:41 13,821 04:20
53 62 MERLIN LOIC 00:45:37 SEM 22 00:08:43 00:08:43 ATHLETISME CLUB OUTREAU 13,811 04:21
54 81 FLAHAUT DANIEL 00:45:44 V1M 24 00:08:50 00:06:11 LE DRAPEAU 13,776 04:21
55 272 LE SCIELLOUR BRUNO 00:45:48 V2M 3 00:08:54 00:01:20 LE DRAPEAU 13,755 04:22
56 246 DEWEER NICOLAS 00:45:50 SEM 23 00:08:56 00:08:56 CS NESLES 13,745 04:22
57 116 FORESTIER ALAIN 00:46:07 V1M 25 00:09:13 00:06:34 AMICALE HOSPITALIERS BOULOGNE 13,661 04:24
58 330 FOURQUEZ CHRISTOPHE 00:46:11 V1M 26 00:09:17 00:06:38 TEAM RACKLETTE 13,641 04:24
59 308 RAY SAMUEL 00:46:19 V1M 27 00:09:25 00:06:46 NON LICENCIE 13,602 04:25
60 280 SENET EMILIE 00:46:20 SEF 3 00:09:26 00:03:32 A.S. MARCK 13,597 04:25
61 269 LETITRE BRUNO 00:46:21 SEM 24 00:09:27 00:09:27 ATHLETISME CLUB OUTREAU 13,592 04:25
62 332 DEMILLY MATTHIEU 00:46:21 SEM 25 00:09:27 00:09:27 ATHLETIQUE CLUB CAPELLOIS 13,592 04:25
63 65 PAINSET THOMAS 00:46:25 SEM 26 00:09:31 00:09:31 ATHLETISME CLUB OUTREAU 13,573 04:25
64 99 FARNWORTH GRAEME 00:46:27 V1M 28 00:09:33 00:06:54 ATHLETIQUE CLUB CAPELLOIS 13,563 04:25
65 119 CHEUVA LOIC 00:46:27 V1M 29 00:09:33 00:06:54 WIMEREUX RUNNING CLUB 13,563 04:25
66 122 DUBRULLE FRANCK 00:46:35 V2M 4 00:09:41 00:02:07 WIMEREUX RUNNING CLUB 13,524 04:26
67 7 LEBAS JULIEN 00:46:39 SEM 27 00:09:45 00:09:45 CPAM 13,505 04:27
68 146 CHAMPION BRUNO 00:46:40 V1M 30 00:09:46 00:07:07 NON LICENCIE 13,500 04:27
69 140 BALY SYLVAIN 00:46:44 SEM 28 00:09:50 00:09:50 13,481 04:27
70 317 KUPCZYK MARIAN 00:46:45 SEM 29 00:09:51 00:09:51 PASS RUNNING 13,476 04:27
71 94 BARROIS CELINE 00:46:48 SEF 4 00:09:54 00:04:00 ATHLETIQUE CLUB CAPELLOIS 13,462 04:27
72 231 DELATTRE GREGORY 00:46:54 SEM 30 00:10:00 00:10:00 NON LICENCIE 13,433 04:28
73 262 MOUNINE SLIMANE 00:46:56 SEM 31 00:10:02 00:10:02 NON LICENCIE 13,423 04:28
74 182 DELPIERRE HERVE 00:46:56 V1M 31 00:10:02 00:07:23 13,423 04:28
75 153 JONCQUEL JEAN-PAUL 00:47:10 V2M 5 00:10:16 00:02:42 OPALE TRAIL NATURE 13,357 04:30
76 10 DUCLOY EDDY 00:47:11 V1M 32 00:10:17 00:07:38 CPAM 13,352 04:30
77 54 DUFOUR ANTOINE 00:47:24 SEM 32 00:10:30 00:10:30 ATHLETISME CLUB OUTREAU 13,291 04:31
78 206 TISSERAND THIBAUT 00:47:25 SEM 33 00:10:31 00:10:31 NON LICENCIE 13,286 04:31
79 258 DAGNEAUX FABIEN 00:47:29 V1M 33 00:10:35 00:07:56 EMA 62 13,268 04:31
80 115 BRIMEUX LUDOVIC 00:47:38 SEM 34 00:10:44 00:10:44 AMICALE HOSPITALIERS BOULOGNE 13,226 04:32
81 290 DIEVAL JACQUES 00:47:39 V1M 34 00:10:45 00:08:06 NON LICENCIE 13,221 04:32
82 145 CAT CHRISTOPHE 00:47:46 SEM 35 00:10:52 00:10:52 13,189 04:33
83 284 HERBEZ JOSE 00:47:50 V3M 1 00:10:56 00:00:00 SAINT MARTIN ATHLETISME 13,171 04:33
84 296 BEAUMONT DOMINIQUE 00:47:52 V1M 35 00:10:58 00:08:19 NON LICENCIE 13,162 04:34
85 93 VLIEGHE JACQUES 00:47:54 V1M 36 00:11:00 00:08:21 LE DRAPEAU 13,152 04:34
86 174 CHAUCHOY OLIVIER 00:47:56 V1M 37 00:11:02 00:08:23 COLEMBERT 13,143 04:34
87 302 MALLIOPOULOS XAVIER 00:48:03 V2M 6 00:11:09 00:03:35 BERCK ATHLETISME COTE D'OPALE 13,111 04:35
88 26 VERITE CEDRIC 00:48:05 SEM 36 00:11:11 00:11:11 SPORT PLUS 13,102 04:35
89 236 QUANDALLE VINCENT 00:48:05 JUM 1 00:11:11 00:00:00 ATHLETISME CLUB OUTREAU 13,102 04:35
90 307 GODEC RONAN 00:48:06 V1M 38 00:11:12 00:08:33 NON LICENCIE 13,098 04:35
91 243 BEAUVOIS CHRISTOPHE 00:48:11 SEM 37 00:11:17 00:11:17 TEAMRAKLETTE  13,075 04:35
92 178 CHARTAUX RAPHAEL 00:48:12 V1M 39 00:11:18 00:08:39 CS NESLES 13,071 04:35
93 121 TILLIER LUDOVIC 00:48:13 SEM 38 00:11:19 00:11:19 WIMEREUX RUNNING CLUB 13,066 04:36
94 322 DELAHAYE SEBASTIEN 00:48:14 SEM 39 00:11:20 00:11:20 NON LICENCIE 13,062 04:36
95 225 BEGUE THIERRY 00:48:21 V1M 40 00:11:27 00:08:48 JOGGING CLUB LICQUOIS 13,030 04:36
96 96 BREQUEVILLE LIONEL 00:48:26 V1M 41 00:11:32 00:08:53 ATHLETIQUE CLUB CAPELLOIS 13,008 04:37
97 18 BORDEZ FRANCK 00:48:45 V2M 7 00:11:51 00:04:17 SPORT PLUS 12,923 04:39
98 220 SORET FRANCK 00:48:45 SEM 40 00:11:51 00:11:51 NL 12,923 04:39
99 167 RANDOUX FABIEN 00:48:46 SEM 41 00:11:52 00:11:52 12,919 04:39
100 43 DENEZ ANNE-SOPHIE 00:48:47 V1F 1 00:11:53 00:00:00 PATRIOTES CROSS DE GUINES 12,914 04:39
101 319 GIGADEN FRANCK 00:48:48 V1M 42 00:11:54 00:09:15 EXTREM TEAM 12,910 04:39
102 205 BALY PATRICK 00:48:50 V2M 8 00:11:56 00:04:22 12,901 04:39
103 40 BUY JACQUES 00:48:52 V2M 9 00:11:58 00:04:24 PATRIOTES CROSS DE GUINES 12,892 04:39
104 102 LANGLOIS FREDERIC 00:48:58 V1M 43 00:12:04 00:09:25 ATHLETIQUE CLUB CAPELLOIS 12,866 04:40
105 17 ROBART EDDY 00:49:02 V1M 44 00:12:08 00:09:29 CS NESLES 12,848 04:40
106 120 DUMONT LUDOVIC 00:49:03 V1M 45 00:12:09 00:09:30 WIMEREUX RUNNING CLUB 12,844 04:40
107 326 MARGOLLE CHRISTOPHE 00:49:06 V1M 46 00:12:12 00:09:33 NON LICENCIE 12,831 04:41
108 224 SABLON EMMANUEL 00:49:07 V1M 47 00:12:13 00:09:34 VT TRAIL HARDINGHEN 12,827 04:41
109 1 RIGAUD ANTHONY 00:49:31 SEM 42 00:12:37 00:12:37 CPAM 12,723 04:43
110 70 WATTEZ ERIC 00:49:43 V2M 10 00:12:49 00:05:15 ATHLETISME CLUB OUTREAU 12,672 04:44
111 165 PAINSET NICOLAS 00:49:45 V1M 48 00:12:51 00:10:12 NON LICENCIE 12,663 04:44
112 230 HAIGNERE NICOLAS 00:49:47 V1M 49 00:12:53 00:10:14 12,655 04:44
113 252 NORMANT REMI 00:49:49 SEM 43 00:12:55 00:12:55 ATHLETIQUE CLUB CAPELLOIS 12,646 04:45
114 294 EVRARD DENIS 00:49:50 V1M 50 00:12:56 00:10:17 JOGGING CLUB LICQUOIS 12,642 04:45
115 85 MARIETTE YVETTE 00:49:51 V2F 1 00:12:57 00:00:00 LE DRAPEAU 12,638 04:45
116 83 INGOUF NATHALIE 00:49:52 V1F 2 00:12:58 00:01:05 LE DRAPEAU 12,634 04:45
117 77 DOCQUOIS MICHEL 00:49:54 V1M 51 00:13:00 00:10:21 LE DRAPEAU 12,625 04:45
118 25 FLOURET LAUGIER STEPHANIE 00:49:55 V1F 3 00:13:01 00:01:08 SPORT PLUS 12,621 04:45
119 261 LEFRANC OLIVIER 00:49:58 V1M 52 00:13:04 00:10:25 SAINT MARTIN ATHLETISME 12,608 04:46
120 33 HODIQUE MYRIAM 00:50:02 SEF 5 00:13:08 00:07:14 TEAM TRAIL 62 12,592 04:46
121 56 LAVERDURE PASCAL 00:50:06 V2M 11 00:13:12 00:05:38 ATHLETISME CLUB OUTREAU 12,575 04:46
122 217 LOORIUS PATRICK 00:50:10 V3M 2 00:13:16 00:02:20 NON LICENCIE 12,558 04:47
123 98 BUE CHRISTOPHE 00:50:12 SEM 44 00:13:18 00:13:18 ATHLETIQUE CLUB CAPELLOIS 12,550 04:47
124 168 RINGOT DAVID 00:50:16 V1M 53 00:13:22 00:10:43 12,533 04:47
125 185 WILLAERT JULIEN 00:50:27 SEM 45 00:13:33 00:13:33 NON LICENCIE 12,488 04:48
126 274 BETENCOURT THIERRY 00:50:31 V1M 54 00:13:37 00:10:58 ATHLETIQUE CLUB CAPELLOIS 12,471 04:49
127 276 CRETEL LAURENT 00:50:34 V1M 55 00:13:40 00:11:01 C.S. NESLES 12,459 04:49
128 309 MANIER WILLIAM 00:50:38 SEM 46 00:13:44 00:13:44 BASKET CLUB SAINT-MARTIN 12,442 04:49
129 175 DETHOOR DOMINIQUE 00:50:43 V2M 12 00:13:49 00:06:15 COLEMBERT 12,422 04:50
130 214 LELEU GABRIEL 00:50:46 V1M 56 00:13:52 00:11:13 12,410 04:50
131 88 NAJMI AICHA 00:50:56 V1F 4 00:14:02 00:02:09 LE DRAPEAU 12,369 04:51
132 166 QUENEHEN EMMANUEL 00:50:57 SEM 47 00:14:03 00:14:03 NON LICENCIE 12,365 04:51
133 293 GOURNAY LUKAS 00:50:59 V1M 57 00:14:05 00:11:26 NON LICENCIE 12,357 04:51
134 124 SPILMONT HELENE 00:51:08 SEF 6 00:14:14 00:08:20 WIMEREUX RUNNING CLUB 12,321 04:52
135 195 BARBAUT ISABELLE 00:51:13 V2F 2 00:14:19 00:01:22 A.S. MARCK 12,301 04:53
136 75 DEGARDIN DAVID 00:51:15 SEM 48 00:14:21 00:14:21 LE DRAPEAU 12,293 04:53
137 28 BUTEL DANIEL 00:51:18 V2M 13 00:14:24 00:06:50 SPORT PLUS 12,281 04:53
138 21 CAPPELE DOMINIQUE 00:51:18 SEM 49 00:14:24 00:14:24 SPORT PLUS 12,281 04:53
139 204 PIHL JOEL 00:51:22 V3M 3 00:14:28 00:03:32 SAINT MARTIN ATHLETISME 12,265 04:54
140 263 SCOTTE MATHIEU 00:51:25 SEM 50 00:14:31 00:14:31 NON LICENCIE 12,253 04:54
141 331 HOLUIGUE FREDERIC 00:51:27 SEM 51 00:14:33 00:14:33 ATHLETIQUE CLUB CAPELLOIS 12,245 04:54
142 216 DUHAMEL VINCENT 00:51:27 V1M 58 00:14:33 00:11:54 12,245 04:54
143 215 CRESSON XAVIER 00:51:34 V2M 14 00:14:40 00:07:06 A.S. MARCK 12,217 04:55
144 183 GUYOT CHRISTOPHE 00:51:36 V1M 59 00:14:42 00:12:03 12,209 04:55
145 91 PIENTON CEDRIC 00:51:39 SEM 52 00:14:45 00:14:45 LE DRAPEAU 12,197 04:55
146 162 MOUTON OLIVIER 00:51:44 V1M 60 00:14:50 00:12:11 12,178 04:56
147 111 REGNIER CHRISTINE 00:51:46 V1F 5 00:14:52 00:02:59 ATHLETIQUE CLUB CAPELLOIS 12,170 04:56
148 113 NOEL DAVID 00:51:46 V1M 61 00:14:52 00:12:13 ATHLETIQUE CLUB CAPELLOIS 12,170 04:56
149 6 MORZA YANICK 00:51:49 V1M 62 00:14:55 00:12:16 CPAM 12,158 04:56
150 291 DESTREZ CHRISTOPHE 00:51:53 V1M 63 00:14:59 00:12:20 NON LICENCIE 12,143 04:56
151 289 MOTTY FRANCK 00:51:56 V1M 64 00:15:02 00:12:23 NON LICENCIE 12,131 04:57
152 131 LEJEUNE CHARLOTTE 00:51:58 V1F 6 00:15:04 00:03:11 WIMEREUX RUNNING CLUB 12,123 04:57
153 76 DELETOILLE JULIEN 00:51:59 SEM 53 00:15:05 00:15:05 LE DRAPEAU 12,119 04:57
154 155 LEGRAND EDDY 00:52:03 V1M 65 00:15:09 00:12:30 NON LICENCIE 12,104 04:57
155 90 PETA JEANNE ESTELLE 00:52:09 V1F 7 00:15:15 00:03:22 LE DRAPEAU 12,081 04:58
156 151 GERARD DEBAS 00:52:10 V3M 4 00:15:16 00:04:20 NON LICENCIE 12,077 04:58
157 63 MINET CORENTINE 00:52:10 CAF 1 00:15:16 00:00:00 ATHLETISME CLUB OUTREAU 12,077 04:58
158 325 ETIENNE JEAN CLAUDE 00:52:14 V2M 15 00:15:20 00:07:46 NON LICENCIE 12,061 04:58
159 23 DULOT ERIC 00:52:18 V2M 16 00:15:24 00:07:50 SPORT PLUS 12,046 04:59
160 49 BOCHENT MATTHIEU 00:52:20 SEM 54 00:15:26 00:15:26 ATHLETISME CLUB OUTREAU 12,038 04:59
161 320 DEGROOTE MAGGY 00:52:28 SEF 7 00:15:34 00:09:40 NON LICENCIE 12,008 05:00
162 144 BUTEL MARIE 00:52:39 SEF 8 00:15:45 00:09:51 11,966 05:01
163 139 BAILLY JULIEN 00:52:40 SEM 55 00:15:46 00:15:46 11,962 05:01
164 298 VAN MEIR DGIOVANI 00:52:43 SEM 56 00:15:49 00:15:49 SAINT MARTIN ATHLETISME 11,951 05:01
165 264 HACQUEL MICHEL 00:52:43 V1M 66 00:15:49 00:13:10 LE DRAPEAU 11,951 05:01
166 100 GROSJEAN CHRISTOPHE 00:52:44 V1M 67 00:15:50 00:13:11 ATHLETIQUE CLUB CAPELLOIS 11,947 05:01
167 137 AGEZ DAVID 00:52:47 V1M 68 00:15:53 00:13:14 A.S. MARCK 11,936 05:02
168 161 MORTIER ROMAIN 00:52:47 SEM 57 00:15:53 00:15:53 NON LICENCIE 11,936 05:02
169 212 SAULNIER FRANCOIS 00:52:53 SEM 58 00:15:59 00:15:59 11,913 05:02
170 179 DUQUENOY DAVID 00:52:55 SEM 59 00:16:01 00:16:01 JOGGING CLUB DE LICQUES 11,906 05:02
171 292 CEHE VINCENT 00:53:05 V1M 69 00:16:11 00:13:32 NON LICENCIE 11,868 05:03
172 271 DROLLET HERVE 00:53:09 V2M 17 00:16:15 00:08:41 AS ETAPLES 11,853 05:04
173 283 NAVET SEBASTIEN 00:53:13 V1M 70 00:16:19 00:13:40 ATHLETISME CLUB OUTREAU 11,838 05:04
174 156 LEPELLETIER CYRIL 00:53:26 V1M 71 00:16:32 00:13:53 SALOME 11,790 05:05
175 281 BALY LUCAS 00:53:35 V1M 72 00:16:41 00:14:02 NON LICENCIE 11,757 05:06
176 327 THIBAUT OLIVIER 00:53:50 SEM 60 00:16:56 00:16:56 NON LICENCIE 11,703 05:08
177 285 VAUTION FABRICE 00:53:53 V1M 73 00:16:59 00:14:20 NON LICENCIE 11,692 05:08
178 45 KILPATRICK JESSICA 00:53:53 SEF 9 00:16:59 00:11:05 PATRIOTES CROSS DE GUINES 11,692 05:08
179 288 FEUTRY PATRICK 00:54:00 V1M 74 00:17:06 00:14:27 ATHLETISME CLUB OUTREAU 11,667 05:09
180 74 DEFRAITEUR PAULINE 00:54:02 SEF 10 00:17:08 00:11:14 LE DRAPEAU 11,659 05:09
181 237 HOLUIGUE VERONIQUE 00:54:08 V1F 8 00:17:14 00:05:21 NON LICENCIE 11,638 05:09
182 187 DEMILLY SEBASTIEN 00:54:11 SEM 61 00:17:17 00:17:17 JOGGING CLUB LICQUOIS 11,627 05:10
183 24 DULOT PASCALINE 00:54:14 V1F 9 00:17:20 00:05:27 SPORT PLUS 11,616 05:10
184 192 FOUCAULT PASCAL 00:54:18 V2M 18 00:17:24 00:09:50 CULTURE DANSE ETAPLES 11,602 05:10
185 117 VASSEUR CHRISTELE 00:54:18 V1F 10 00:17:24 00:05:31 AMICALE HOSPITALIERS BOULOGNE 11,602 05:10
186 87 MOREAU GABRIEL 00:54:18 V1M 75 00:17:24 00:14:45 LE DRAPEAU 11,602 05:10
187 188 GOLLIOT SEBASTIEN 00:54:27 V1M 76 00:17:33 00:14:54 JOGGING CLUB LICQUOIS 11,570 05:11
188 55 GOLLIOT DIDIER 00:54:30 V1M 77 00:17:36 00:14:57 ATHLETISME CLUB OUTREAU 11,560 05:11
189 218 BIGOT MARIE-CHRISTINE 00:54:38 V2F 3 00:17:44 00:04:47 NON LICENCIE 11,531 05:12
190 142 BENSE BOULY STEPHANIE 00:54:42 V1F 11 00:17:48 00:05:55 11,517 05:13
191 312 LHERMILLIER ELIOT 00:54:45 SEM 62 00:17:51 00:17:51 TOUQUET OPALE ATHLETISME 11,507 05:13
192 114 BRIMEUX PIERRE 00:54:53 V3M 5 00:17:59 00:07:03 AMICALE HOSPITALIERS BOULOGNE 11,479 05:14
193 333 LEHON GILLES 00:55:00 V2M 19 00:18:06 00:10:32 NON LICENCIE 11,455 05:14
194 277 CLEMENT STEPHANE 00:55:01 SEM 63 00:18:07 00:18:07 PATRIOTE CROSS DE GUINES 11,451 05:14
195 157 LIMASCON SANDRINE 00:55:05 SEF 11 00:18:11 00:12:17 NON LICENCIE 11,437 05:15
196 89 PAQUES ERIC 00:55:05 V2M 20 00:18:11 00:10:37 LE DRAPEAU 11,437 05:15
197 172 AVISSE SEBASTIEN 00:55:06 SEM 64 00:18:12 00:18:12 COLEMBERT 11,434 05:15
198 173 CAULIER RUDOLPH 00:55:06 V1M 78 00:18:12 00:15:33 COLEMBERT 11,434 05:15
199 306 NORMANT ALAIN 00:55:24 V2M 21 00:18:30 00:10:56 MAIRIE DE BOULOGNE SUR MER 11,372 05:17
200 9 PERARD CHARLOTTE 00:55:36 V1F 12 00:18:42 00:06:49 CPAM 11,331 05:18
201 110 MAGNIER GERALD 00:55:38 V1M 79 00:18:44 00:16:05 ATHLETIQUE CLUB CAPELLOIS 11,324 05:18
202 251 LHERMILLIER FREDDY 00:55:39 V3M 6 00:18:45 00:07:49 TOUQUET OPALE ATHLETISME 11,321 05:18
203 209 LEDOUX JEREMY 00:55:41 SEM 65 00:18:47 00:18:47 SAINT MARTIN ATHLETISME 11,314 05:18
204 171 RICHARD CHRISTINE 00:55:42 V1F 13 00:18:48 00:06:55 SAINT MARTIN ATHLETISME 11,311 05:18
205 186 ROBART FRANCOIS 00:55:42 V2M 22 00:18:48 00:11:14 CS NESLES 11,311 05:18
206 210 DESCAMPS MARION 00:55:46 SEF 12 00:18:52 00:12:58 11,297 05:19
207 138 ANSEL YANNICK 00:56:02 SEM 66 00:19:08 00:19:08 11,243 05:20
208 247 DEWEER GAELLE 00:56:04 SEF 13 00:19:10 00:13:16 CS NESLES 11,237 05:20
209 177 CHARTAUX SUZEL 00:56:08 V1F 14 00:19:14 00:07:21 CS NESLES 11,223 05:21
210 4 MERLIN OLIVIER 00:56:11 V1M 80 00:19:17 00:16:38 CPAM 11,213 05:21
211 141 BENSE ERIC 00:56:14 V2M 23 00:19:20 00:11:46 NL 11,203 05:21
212 190 RAY ISABELLE 00:56:20 V1F 15 00:19:26 00:07:33 CULTURE DANSE ETAPLES 11,183 05:22
213 189 LAURENT JOCELYN 00:56:21 V2M 24 00:19:27 00:11:53 CULTURE DANSE ETAPLES 11,180 05:22
214 287 CRETON FABRICE 00:56:22 V1M 81 00:19:28 00:16:49 NON LICENCIE 11,177 05:22
215 19 BRIDOUX CHRISTINE 00:56:27 V1F 16 00:19:33 00:07:40 SPORT PLUS 11,160 05:23
216 176 MAES ETIENNE 00:56:27 V2M 25 00:19:33 00:11:59 COLEMBERT 11,160 05:23
217 12 LEGUAY MARIANICK 00:56:30 V1F 17 00:19:36 00:07:43 CPAM 11,150 05:23
218 233 DELATTRE LOIC 00:56:32 V1M 82 00:19:38 00:16:59 NL 11,144 05:23
219 194 DAUSQUE DAMIEN 00:56:43 SEM 67 00:19:49 00:19:49 NON LICENCIE 11,108 05:24
220 134 WILLIAMSON NATHALIE 00:56:50 V2F 4 00:19:56 00:06:59 WIMEREUX RUNNING CLUB 11,085 05:25
221 250 DELPLANQUE CHRISTOPHE 00:56:57 V2M 26 00:20:03 00:12:29 11,062 05:25
222 68 PODEVIN THIERRY 00:56:58 V2M 27 00:20:04 00:12:30 ATHLETISME CLUB OUTREAU 11,059 05:26
223 314 LOOSEN FREDERICQ 00:57:13 SEM 68 00:20:19 00:20:19 NON LICENCIE 11,011 05:27
224 147 CLETON JONATHAN 00:57:19 SEM 69 00:20:25 00:20:25 NL 10,992 05:28
225 239 ROGEE MATTHIEU 00:57:20 SEM 70 00:20:26 00:20:26 NON LICENCIE 10,988 05:28
226 35 HODICQ FREDDY 00:57:20 V1M 83 00:20:26 00:17:47 TEAM TRAIL 62 10,988 05:28
227 69 ROUX FLORENCE 00:57:20 SEF 14 00:20:26 00:14:32 ATHLETISME CLUB OUTREAU 10,988 05:28
228 101 HOLUIGUE VIRGINIE 00:57:20 SEF 15 00:20:26 00:14:32 ATHLETIQUE CLUB CAPELLOIS 10,988 05:28
229 300 LAMIRAND MANON 00:57:26 SEF 16 00:20:32 00:14:38 JOGGING CLUB LICQUOIS 10,969 05:28
230 301 FONSECA SEBASTIEN 00:57:26 SEM 71 00:20:32 00:20:32 NON LICENCIE 10,969 05:28
231 104 LEBON AUDREY 00:57:31 SEF 17 00:20:37 00:14:43 ATHLETIQUE CLUB CAPELLOIS 10,953 05:29
232 266 GUYOT KENNY 00:57:33 SEM 72 00:20:39 00:20:39 NON LICENCIE 10,947 05:29
233 305 GOBERT GILLES 00:57:35 V2M 28 00:20:41 00:13:07 NON LICENCIE 10,941 05:29
234 257 GRENON ERIC 00:57:41 V1M 84 00:20:47 00:18:08 NON LICENCIE 10,922 05:30
235 316 ROSENBLATT YLANN 00:58:09 SEM 73 00:21:15 00:21:15 10,834 05:32
236 128 KURCZEWSKI MARTINE 00:58:21 SEF 18 00:21:27 00:15:33 WIMEREUX RUNNING CLUB 10,797 05:33
237 20 BROCHART LUDOVIC 00:58:26 V1M 85 00:21:32 00:18:53 SPORT PLUS 10,782 05:34
238 313 DICKS ANDRE 00:58:30 SEM 74 00:21:36 00:21:36 NON LICENCIE 10,769 05:34
239 112 SIMSOVIC GAEL 00:58:32 V1M 86 00:21:38 00:18:59 ATHLETIQUE CLUB CAPELLOIS 10,763 05:34
240 79 DUHAMEL THIERRY 00:58:51 V1M 87 00:21:57 00:19:18 LE DRAPEAU 10,705 05:36
241 2 GOUDAL NATHALIE 00:59:00 V2F 5 00:22:06 00:09:09 CPAM 10,678 05:37
242 238 DUBUIS MARTIAL 00:59:26 V1M 88 00:22:32 00:19:53 ATHLETIQUE CLUB CAPELLOIS 10,600 05:40
243 125 HOAREAU FREDERIQUE 00:59:43 V1F 18 00:22:49 00:10:56 WIMEREUX RUNNING CLUB 10,550 05:41
244 129 CONTIER ISABELLE 00:59:44 SEF 19 00:22:50 00:16:56 WIMEREUX RUNNING CLUB 10,547 05:41
245 16 DENAVEAUT VINCENT 00:59:45 V1M 89 00:22:51 00:20:12 CPAM 10,544 05:41
246 13 LOUCHET AURELIE 00:59:47 V1F 19 00:22:53 00:11:00 CPAM 10,538 05:42
247 234 COUSIN CHRISTOPHE 01:00:00 V1M 90 00:23:06 00:20:27 10,500 05:43
248 127 DUCROCQ CAROLE 01:00:01 V1F 20 00:23:07 00:11:14 WIMEREUX RUNNING CLUB 10,497 05:43
249 126 CABY SOPHIE 01:00:03 V1F 21 00:23:09 00:11:16 WIMEREUX RUNNING CLUB 10,491 05:43
250 133 HOLLEBECQUE MARTIN 01:00:04 SEM 75 00:23:10 00:23:10 WIMEREUX RUNNING CLUB 10,488 05:43
251 310 BENSE PAULINE 01:00:16 SEF 20 00:23:22 00:17:28 NON LICENCIE 10,454 05:44
252 197 MAGNIER BEATRICE 01:00:20 V2F 6 00:23:26 00:10:29 SAINT MARTIN ATHLETISME 10,442 05:45
253 80 FAUQUEMBERGUE VERONIQUE 01:00:30 V1F 22 00:23:36 00:11:43 LE DRAPEAU 10,413 05:46
254 5 BOURDIN STEPHANE 01:00:38 V2M 29 00:23:44 00:16:10 CPAM 10,390 05:46
255 196 LEBLANC LYDIE 01:00:40 V2F 7 00:23:46 00:10:49 A.S. MARCK 10,385 05:47
256 71 BAILLY ISABELLE 01:00:42 V1F 23 00:23:48 00:11:55 LE DRAPEAU 10,379 05:47
257 304 LEPORCQ TIMOTHEE 01:01:00 JUM 2 00:24:06 00:12:55 NON LICENCIE 10,328 05:49
258 184 LOISEL VINCENT 01:01:18 V1M 91 00:24:24 00:21:45 BOULOGNE ATHLETIQUE CLUB 10,277 05:50
259 11 LUTTWILLER GUILLAUME 01:01:23 SEM 76 00:24:29 00:24:29 CPAM 10,263 05:51
260 47 THERY MARTINE 01:01:29 V2F 8 00:24:35 00:11:38 TEAM TRAIL 62 10,247 05:51
261 84 LEBEGUE THERESE 01:01:36 V2F 9 00:24:42 00:11:45 LE DRAPEAU 10,227 05:52
262 318 FODZO ERIC 01:01:37 V1M 92 00:24:43 00:22:04 LES FOULEES ARDRESIENNES 10,225 05:52
263 242 MASCHKE OLIVIER 01:01:58 V1M 93 00:25:04 00:22:25 10,167 05:54
264 329 HALLENNE KARINE 01:01:59 V1F 24 00:25:05 00:13:12 TOUQUET OPALE ATHLETISME 10,164 05:54
265 201 CARON LYUBA 01:02:13 V3F 1 00:25:19 00:00:00 SAINT MARTIN ATHLETISME 10,126 05:56
266 245 MINET ROGER 01:02:19 V3M 7 00:25:25 00:14:29 10,110 05:56
267 67 PALFRAY MARTINE 01:02:28 V2F 10 00:25:34 00:12:37 ATHLETISME CLUB OUTREAU 10,085 05:57
268 59 LIMASCON FLORENCE 01:02:29 V1F 25 00:25:35 00:13:42 ATHLETISME CLUB OUTREAU 10,083 05:57
269 60 MAILLOT MELANIE 01:02:49 SEF 21 00:25:55 00:20:01 ATHLETISME CLUB OUTREAU 10,029 05:59
270 61 MAILLOT JEAN-LOUIS 01:02:50 V2M 30 00:25:56 00:18:22 ATHLETISME CLUB OUTREAU 10,027 05:59
271 235 SCHUMACHER SANDRA 01:03:02 V1F 26 00:26:08 00:14:15 NON LICENCIE 9,995 06:00
272 324 COLL NADIA 01:03:57 V1F 27 00:27:03 00:15:10 NON LICENCIE 9,851 06:05
273 232 DELATTRE KOUPLO SAHRA 01:03:57 SEF 22 00:27:03 00:21:09 NL 9,851 06:05
274 228 SAUVAGE MAXIME 01:04:06 SEM 77 00:27:12 00:27:12 SAINT MARTIN ATHLETISME 9,828 06:06
275 278 GIRAULT ALEXANDRE 01:04:07 V1M 94 00:27:13 00:24:34 NL 9,826 06:06
276 31 DELLIAUX DELPHINE 01:04:11 SEF 23 00:27:17 00:21:23 TEAM TRAIL 62 9,816 06:07
277 279 SALMON CHRISTOPHE 01:04:13 V1M 95 00:27:19 00:24:40 NON LICENCIE 9,811 06:07
278 130 COTTINEAU ISABELLE 01:04:14 V1F 28 00:27:20 00:15:27 WIMEREUX RUNNING CLUB 9,808 06:07
279 200 LECLERCQ ANNE-MARIE 01:04:43 V3F 2 00:27:49 00:02:30 SAINT MARTIN ATHLETISME 9,735 06:10
280 227 POURRE PASCAL 01:04:59 V2M 31 00:28:05 00:20:31 NON LICENCIE 9,695 06:11
281 143 BERTIN AUBIN 01:05:46 JUM 3 00:28:52 00:17:41 9,579 06:16
282 160 MERLIN JOSE 01:06:28 V2M 32 00:29:34 00:22:00 NL 9,478 06:20
283 180 DUQUENOY HELENE 01:06:36 SEF 24 00:29:42 00:23:48 JOGGING CLUB LICQUOIS 9,459 06:21
284 229 POURREAU REMI 01:06:52 SEM 78 00:29:58 00:29:58 9,422 06:22
285 193 SIBILLI FANNY 01:07:01 CAF 2 00:30:07 00:14:51 NON LICENCIE 9,401 06:23
286 159 MAGNIER MICKAEL 01:07:11 SEM 79 00:30:17 00:30:17 NON LICENCIE 9,377 06:24
287 46 FEUTRY MATHILDE 01:07:44 SEF 25 00:30:50 00:24:56 PATRIOTES CROSS DE GUINES 9,301 06:27
288 255 WALTER LETIZIA 01:08:07 V2F 11 00:31:13 00:18:16 NON LICENCIE 9,249 06:29
289 198 MAILLARD NADINE 01:08:16 V3F 3 00:31:22 00:06:03 SAINT MARTIN ATHLETISME 9,229 06:30
290 295 BERKOUN LAETITIA 01:08:25 SEF 26 00:31:31 00:25:37 BAC 9,208 06:31
291 299 CHAUSSOY ANNE 01:08:52 V1F 29 00:31:58 00:20:05 SAINT MARTIN ATHLETISME 9,148 06:34
292 86 MODOLO FANNY 01:09:11 V1F 30 00:32:17 00:20:24 LE DRAPEAU 9,106 06:35
293 82 HANON JEAN-PIERRE 01:09:12 V2M 33 00:32:18 00:24:44 LE DRAPEAU 9,104 06:35
294 219 CHUDY PERRINE 01:09:40 SEF 27 00:32:46 00:26:52 9,043 06:38
295 221 VAN ELSLANDE EMILIE 01:09:41 SEF 28 00:32:47 00:26:53 9,041 06:38
296 222 DELATTRE KARINE 01:09:52 SEF 29 00:32:58 00:27:04 NON LICENCIE 9,017 06:39
297 53 CUVILLIER STEPHANIE 01:09:55 V1F 31 00:33:01 00:21:08 ATHLETISME CLUB OUTREAU 9,011 06:40
298 27 VERITE HERVE 01:10:03 V2M 34 00:33:09 00:25:35 SPORT PLUS 8,994 06:40
299 109 LUBASZKA JEAN LUC 01:10:12 V2M 35 00:33:18 00:25:44 ATHLETIQUE CLUB CAPELLOIS 8,974 06:41
300 64 NEVEU PAMELA 01:10:17 SEF 30 00:33:23 00:27:29 ATHLETISME CLUB OUTREAU 8,964 06:42
301 208 WACOGNE STEPHANIE 01:12:32 SEF 31 00:35:38 00:29:44 8,686 06:54
302 207 LOUCHET ANNE SOPHIE 01:12:32 SEF 32 00:35:38 00:29:44 8,686 06:54
303 150 GAESTEL OLIVIER 01:12:38 SEM 80 00:35:44 00:35:44 8,674 06:55
304 92 RIQUIER MARIELLE 01:13:28 V2F 12 00:36:34 00:23:37 LE DRAPEAU 8,575 07:00
305 213 LARCHER BEATRICE 01:14:24 V1F 32 00:37:30 00:25:37 NON LICENCIE 8,468 07:05
306 3 MERLIN DOROTHEE 01:16:08 SEF 33 00:39:14 00:33:20 CPAM 8,275 07:15
307 154 LAVIE PHILIPPE 01:18:07 V2M 36 00:41:13 00:33:39 NL 8,065 07:26
308 199 LIGNIER MARIE FRANCE 01:19:03 V4F 1 00:42:09 00:00:00 PINK LADIES 7,970 07:32
309 169 ROUX CHARLES 01:21:27 CAM 5 00:44:33 00:43:56 7,735 07:45

 

Novembre 2017
Lun Mar Mer Jeu Ven Sam Dim
1
2
3
4
5
6
7
8
9
10
11
12
13
14
15
16
17
18
19
20
21
22
23
24
25
27
28
29
30